sensor_id;sensor_type;location;lat;lon;timestamp;P1;durP1;ratioP1;P2;durP2;ratioP2
67108;SDS011;54027;50.786;7.058;2023-09-12T00:00:02;11.30;;;8.80;;
67108;SDS011;54027;50.786;7.058;2023-09-12T00:02:30;15.05;;;8.77;;
67108;SDS011;54027;50.786;7.058;2023-09-12T00:04:55;12.43;;;9.02;;
67108;SDS011;54027;50.786;7.058;2023-09-12T00:20:11;13.60;;;8.50;;
67108;SDS011;54027;50.786;7.058;2023-09-12T00:25:19;11.27;;;8.60;;
67108;SDS011;54027;50.786;7.058;2023-09-12T00:27:44;11.63;;;8.10;;
67108;SDS011;54027;50.786;7.058;2023-09-12T00:30:09;11.25;;;8.35;;
67108;SDS011;54027;50.786;7.058;2023-09-12T00:32:35;12.55;;;7.18;;
67108;SDS011;54027;50.786;7.058;2023-09-12T00:35:01;13.25;;;7.25;;
67108;SDS011;54027;50.786;7.058;2023-09-12T00:37:26;11.88;;;6.55;;
67108;SDS011;54027;50.786;7.058;2023-09-12T00:39:51;9.60;;;6.38;;
67108;SDS011;54027;50.786;7.058;2023-09-12T00:42:16;12.85;;;7.28;;
67108;SDS011;54027;50.786;7.058;2023-09-12T00:44:42;11.88;;;6.60;;
67108;SDS011;54027;50.786;7.058;2023-09-12T00:47:07;12.25;;;6.43;;
67108;SDS011;54027;50.786;7.058;2023-09-12T00:49:34;10.35;;;6.07;;
67108;SDS011;54027;50.786;7.058;2023-09-12T00:52:00;8.10;;;6.50;;
67108;SDS011;54027;50.786;7.058;2023-09-12T00:54:27;8.57;;;6.15;;
67108;SDS011;54027;50.786;7.058;2023-09-12T00:56:52;9.68;;;6.57;;
67108;SDS011;54027;50.786;7.058;2023-09-12T00:59:18;11.48;;;6.30;;
67108;SDS011;54027;50.786;7.058;2023-09-12T01:01:44;11.85;;;6.00;;
67108;SDS011;54027;50.786;7.058;2023-09-12T01:04:10;11.27;;;6.47;;
67108;SDS011;54027;50.786;7.058;2023-09-12T01:06:36;11.25;;;7.90;;
67108;SDS011;54027;50.786;7.058;2023-09-12T01:09:02;11.60;;;6.70;;
67108;SDS011;54027;50.786;7.058;2023-09-12T01:11:27;10.20;;;7.55;;
67108;SDS011;54027;50.786;7.058;2023-09-12T01:13:53;10.40;;;7.82;;
67108;SDS011;54027;50.786;7.058;2023-09-12T01:16:18;11.30;;;7.35;;
67108;SDS011;54027;50.786;7.058;2023-09-12T01:18:44;12.02;;;8.07;;
67108;SDS011;54027;50.786;7.058;2023-09-12T01:29:10;12.35;;;7.85;;
67108;SDS011;54027;50.786;7.058;2023-09-12T01:31:38;15.98;;;7.85;;
67108;SDS011;54027;50.786;7.058;2023-09-12T01:34:08;9.98;;;7.18;;
67108;SDS011;54027;50.786;7.058;2023-09-12T01:36:35;11.23;;;7.55;;
67108;SDS011;54027;50.786;7.058;2023-09-12T01:39:00;12.85;;;8.35;;
67108;SDS011;54027;50.786;7.058;2023-09-12T01:41:26;12.23;;;8.95;;
67108;SDS011;54027;50.786;7.058;2023-09-12T01:43:53;14.77;;;9.90;;
67108;SDS011;54027;50.786;7.058;2023-09-12T01:46:20;16.05;;;9.68;;
67108;SDS011;54027;50.786;7.058;2023-09-12T01:48:46;15.05;;;9.40;;
67108;SDS011;54027;50.786;7.058;2023-09-12T01:51:16;11.98;;;9.05;;
67108;SDS011;54027;50.786;7.058;2023-09-12T01:53:43;16.73;;;9.48;;
67108;SDS011;54027;50.786;7.058;2023-09-12T01:56:11;13.85;;;8.98;;
67108;SDS011;54027;50.786;7.058;2023-09-12T01:58:37;15.75;;;9.65;;
67108;SDS011;54027;50.786;7.058;2023-09-12T02:01:03;12.55;;;8.27;;
67108;SDS011;54027;50.786;7.058;2023-09-12T02:03:29;13.57;;;9.40;;
67108;SDS011;54027;50.786;7.058;2023-09-12T02:05:54;13.00;;;8.25;;
67108;SDS011;54027;50.786;7.058;2023-09-12T02:08:20;13.15;;;8.18;;
67108;SDS011;54027;50.786;7.058;2023-09-12T02:10:45;10.02;;;6.63;;
67108;SDS011;54027;50.786;7.058;2023-09-12T02:13:10;12.40;;;8.63;;
67108;SDS011;54027;50.786;7.058;2023-09-12T02:15:36;11.65;;;7.82;;
67108;SDS011;54027;50.786;7.058;2023-09-12T02:18:01;11.88;;;7.45;;
67108;SDS011;54027;50.786;7.058;2023-09-12T02:20:27;12.07;;;7.95;;
67108;SDS011;54027;50.786;7.058;2023-09-12T02:22:52;9.80;;;6.63;;
67108;SDS011;54027;50.786;7.058;2023-09-12T02:25:18;13.32;;;7.57;;
67108;SDS011;54027;50.786;7.058;2023-09-12T02:27:43;12.13;;;8.13;;
67108;SDS011;54027;50.786;7.058;2023-09-12T02:30:08;11.43;;;8.30;;
67108;SDS011;54027;50.786;7.058;2023-09-12T02:32:34;12.35;;;8.00;;
67108;SDS011;54027;50.786;7.058;2023-09-12T02:34:59;11.68;;;7.95;;
67108;SDS011;54027;50.786;7.058;2023-09-12T02:37:25;12.80;;;8.20;;
67108;SDS011;54027;50.786;7.058;2023-09-12T02:39:50;12.20;;;8.68;;
67108;SDS011;54027;50.786;7.058;2023-09-12T02:42:16;17.13;;;10.38;;
67108;SDS011;54027;50.786;7.058;2023-09-12T02:44:41;14.70;;;9.98;;
67108;SDS011;54027;50.786;7.058;2023-09-12T02:47:06;18.60;;;11.30;;
67108;SDS011;54027;50.786;7.058;2023-09-12T02:49:32;11.75;;;8.88;;
67108;SDS011;54027;50.786;7.058;2023-09-12T02:51:57;16.23;;;10.20;;
67108;SDS011;54027;50.786;7.058;2023-09-12T02:54:22;17.25;;;10.77;;
67108;SDS011;54027;50.786;7.058;2023-09-12T02:56:48;16.13;;;9.90;;
67108;SDS011;54027;50.786;7.058;2023-09-12T02:59:13;14.77;;;8.98;;
67108;SDS011;54027;50.786;7.058;2023-09-12T03:01:38;18.55;;;9.05;;
67108;SDS011;54027;50.786;7.058;2023-09-12T03:04:04;18.13;;;10.20;;
67108;SDS011;54027;50.786;7.058;2023-09-12T03:06:29;16.95;;;10.02;;
67108;SDS011;54027;50.786;7.058;2023-09-12T03:08:55;14.30;;;9.30;;
67108;SDS011;54027;50.786;7.058;2023-09-12T03:11:21;13.27;;;10.25;;
67108;SDS011;54027;50.786;7.058;2023-09-12T03:13:46;13.00;;;8.95;;
67108;SDS011;54027;50.786;7.058;2023-09-12T03:16:12;16.70;;;10.23;;
67108;SDS011;54027;50.786;7.058;2023-09-12T03:18:38;15.45;;;10.15;;
67108;SDS011;54027;50.786;7.058;2023-09-12T03:21:04;17.33;;;10.70;;
67108;SDS011;54027;50.786;7.058;2023-09-12T03:23:29;18.48;;;10.75;;
67108;SDS011;54027;50.786;7.058;2023-09-12T03:25:55;18.92;;;10.95;;
67108;SDS011;54027;50.786;7.058;2023-09-12T03:28:20;13.63;;;9.70;;
67108;SDS011;54027;50.786;7.058;2023-09-12T03:30:46;15.65;;;12.20;;
67108;SDS011;54027;50.786;7.058;2023-09-12T03:33:11;15.68;;;12.13;;
67108;SDS011;54027;50.786;7.058;2023-09-12T03:35:36;20.88;;;11.60;;
67108;SDS011;54027;50.786;7.058;2023-09-12T03:38:02;18.90;;;12.10;;
67108;SDS011;54027;50.786;7.058;2023-09-12T03:40:31;18.38;;;12.30;;
67108;SDS011;54027;50.786;7.058;2023-09-12T03:42:56;15.93;;;11.57;;
67108;SDS011;54027;50.786;7.058;2023-09-12T03:45:22;18.77;;;12.82;;
67108;SDS011;54027;50.786;7.058;2023-09-12T03:47:48;18.73;;;12.52;;
67108;SDS011;54027;50.786;7.058;2023-09-12T03:50:13;26.73;;;13.45;;
67108;SDS011;54027;50.786;7.058;2023-09-12T03:52:39;22.40;;;12.98;;
67108;SDS011;54027;50.786;7.058;2023-09-12T03:55:05;21.95;;;12.98;;
67108;SDS011;54027;50.786;7.058;2023-09-12T03:57:30;17.75;;;12.35;;
67108;SDS011;54027;50.786;7.058;2023-09-12T03:59:56;16.15;;;11.35;;
67108;SDS011;54027;50.786;7.058;2023-09-12T04:02:22;17.38;;;13.13;;
67108;SDS011;54027;50.786;7.058;2023-09-12T04:04:47;21.63;;;13.70;;
67108;SDS011;54027;50.786;7.058;2023-09-12T04:07:12;17.95;;;12.63;;
67108;SDS011;54027;50.786;7.058;2023-09-12T04:09:38;20.17;;;13.98;;
67108;SDS011;54027;50.786;7.058;2023-09-12T04:12:03;16.60;;;12.52;;
67108;SDS011;54027;50.786;7.058;2023-09-12T04:14:29;21.45;;;13.35;;
67108;SDS011;54027;50.786;7.058;2023-09-12T04:16:54;23.08;;;15.23;;
67108;SDS011;54027;50.786;7.058;2023-09-12T04:19:20;19.35;;;14.10;;
67108;SDS011;54027;50.786;7.058;2023-09-12T04:21:45;20.00;;;14.18;;
67108;SDS011;54027;50.786;7.058;2023-09-12T04:24:10;16.58;;;11.55;;
67108;SDS011;54027;50.786;7.058;2023-09-12T04:26:36;16.20;;;10.98;;
67108;SDS011;54027;50.786;7.058;2023-09-12T04:29:01;13.07;;;11.38;;
67108;SDS011;54027;50.786;7.058;2023-09-12T04:31:27;17.08;;;12.52;;
67108;SDS011;54027;50.786;7.058;2023-09-12T04:33:53;18.52;;;12.65;;
67108;SDS011;54027;50.786;7.058;2023-09-12T04:36:19;19.90;;;13.43;;
67108;SDS011;54027;50.786;7.058;2023-09-12T04:38:45;19.17;;;13.70;;
67108;SDS011;54027;50.786;7.058;2023-09-12T04:41:11;22.27;;;14.07;;
67108;SDS011;54027;50.786;7.058;2023-09-12T04:43:40;19.02;;;13.60;;
67108;SDS011;54027;50.786;7.058;2023-09-12T04:46:05;16.83;;;12.63;;
67108;SDS011;54027;50.786;7.058;2023-09-12T04:48:31;15.82;;;11.23;;
67108;SDS011;54027;50.786;7.058;2023-09-12T04:50:56;19.25;;;12.75;;
67108;SDS011;54027;50.786;7.058;2023-09-12T04:53:22;14.43;;;10.95;;
67108;SDS011;54027;50.786;7.058;2023-09-12T04:55:47;15.45;;;12.07;;
67108;SDS011;54027;50.786;7.058;2023-09-12T04:58:13;20.20;;;13.93;;
67108;SDS011;54027;50.786;7.058;2023-09-12T05:00:38;20.27;;;13.48;;
67108;SDS011;54027;50.786;7.058;2023-09-12T05:03:04;20.92;;;13.05;;
67108;SDS011;54027;50.786;7.058;2023-09-12T05:05:30;16.23;;;12.10;;
67108;SDS011;54027;50.786;7.058;2023-09-12T05:07:55;17.52;;;12.55;;
67108;SDS011;54027;50.786;7.058;2023-09-12T05:10:20;16.27;;;12.10;;
67108;SDS011;54027;50.786;7.058;2023-09-12T05:12:46;20.15;;;13.05;;
67108;SDS011;54027;50.786;7.058;2023-09-12T05:15:11;19.08;;;11.75;;
67108;SDS011;54027;50.786;7.058;2023-09-12T05:17:36;17.88;;;12.75;;
67108;SDS011;54027;50.786;7.058;2023-09-12T05:20:02;17.00;;;12.48;;
67108;SDS011;54027;50.786;7.058;2023-09-12T05:22:29;20.55;;;12.90;;
67108;SDS011;54027;50.786;7.058;2023-09-12T05:24:55;16.13;;;12.65;;
67108;SDS011;54027;50.786;7.058;2023-09-12T05:27:20;17.10;;;11.70;;
67108;SDS011;54027;50.786;7.058;2023-09-12T05:29:46;18.13;;;13.38;;
67108;SDS011;54027;50.786;7.058;2023-09-12T05:32:11;23.25;;;14.13;;
67108;SDS011;54027;50.786;7.058;2023-09-12T05:34:37;18.58;;;13.38;;
67108;SDS011;54027;50.786;7.058;2023-09-12T05:37:02;20.15;;;12.70;;
67108;SDS011;54027;50.786;7.058;2023-09-12T05:39:28;21.25;;;11.98;;
67108;SDS011;54027;50.786;7.058;2023-09-12T05:41:53;21.38;;;14.63;;
67108;SDS011;54027;50.786;7.058;2023-09-12T05:44:18;22.42;;;13.07;;
67108;SDS011;54027;50.786;7.058;2023-09-12T05:46:45;17.00;;;11.98;;
67108;SDS011;54027;50.786;7.058;2023-09-12T05:49:11;16.67;;;11.18;;
67108;SDS011;54027;50.786;7.058;2023-09-12T05:51:37;20.95;;;13.50;;
67108;SDS011;54027;50.786;7.058;2023-09-12T05:54:02;18.05;;;12.38;;
67108;SDS011;54027;50.786;7.058;2023-09-12T05:56:28;17.70;;;13.13;;
67108;SDS011;54027;50.786;7.058;2023-09-12T05:58:55;19.42;;;12.98;;
67108;SDS011;54027;50.786;7.058;2023-09-12T06:01:20;18.58;;;12.98;;
67108;SDS011;54027;50.786;7.058;2023-09-12T06:03:45;17.20;;;12.23;;
67108;SDS011;54027;50.786;7.058;2023-09-12T06:06:11;17.95;;;13.00;;
67108;SDS011;54027;50.786;7.058;2023-09-12T06:08:37;19.70;;;12.98;;
67108;SDS011;54027;50.786;7.058;2023-09-12T06:11:02;15.77;;;11.65;;
67108;SDS011;54027;50.786;7.058;2023-09-12T06:13:28;16.45;;;11.10;;
67108;SDS011;54027;50.786;7.058;2023-09-12T06:15:54;14.65;;;10.82;;
67108;SDS011;54027;50.786;7.058;2023-09-12T06:18:19;17.10;;;12.32;;
67108;SDS011;54027;50.786;7.058;2023-09-12T06:20:45;21.10;;;11.55;;
67108;SDS011;54027;50.786;7.058;2023-09-12T06:23:10;15.90;;;10.40;;
67108;SDS011;54027;50.786;7.058;2023-09-12T06:25:36;12.95;;;10.20;;
67108;SDS011;54027;50.786;7.058;2023-09-12T06:28:01;15.32;;;10.43;;
67108;SDS011;54027;50.786;7.058;2023-09-12T06:30:26;14.45;;;9.68;;
67108;SDS011;54027;50.786;7.058;2023-09-12T06:32:52;16.95;;;10.57;;
67108;SDS011;54027;50.786;7.058;2023-09-12T06:35:17;15.10;;;11.00;;
67108;SDS011;54027;50.786;7.058;2023-09-12T06:37:43;13.65;;;10.07;;
67108;SDS011;54027;50.786;7.058;2023-09-12T06:40:09;14.38;;;10.15;;
67108;SDS011;54027;50.786;7.058;2023-09-12T06:42:34;12.85;;;9.02;;
67108;SDS011;54027;50.786;7.058;2023-09-12T06:45:00;11.77;;;9.25;;
67108;SDS011;54027;50.786;7.058;2023-09-12T06:47:25;14.27;;;9.10;;
67108;SDS011;54027;50.786;7.058;2023-09-12T06:49:50;14.60;;;8.02;;
67108;SDS011;54027;50.786;7.058;2023-09-12T06:52:16;10.77;;;7.68;;
67108;SDS011;54027;50.786;7.058;2023-09-12T06:54:41;13.00;;;8.38;;
67108;SDS011;54027;50.786;7.058;2023-09-12T06:57:06;11.07;;;7.38;;
67108;SDS011;54027;50.786;7.058;2023-09-12T06:59:32;9.15;;;7.00;;
67108;SDS011;54027;50.786;7.058;2023-09-12T07:01:58;9.70;;;7.07;;
67108;SDS011;54027;50.786;7.058;2023-09-12T07:04:23;11.70;;;7.15;;
67108;SDS011;54027;50.786;7.058;2023-09-12T07:06:49;11.45;;;8.00;;
67108;SDS011;54027;50.786;7.058;2023-09-12T07:09:16;11.70;;;8.02;;
67108;SDS011;54027;50.786;7.058;2023-09-12T07:11:42;12.50;;;7.75;;
67108;SDS011;54027;50.786;7.058;2023-09-12T07:14:08;14.50;;;7.70;;
67108;SDS011;54027;50.786;7.058;2023-09-12T07:16:34;10.82;;;7.38;;
67108;SDS011;54027;50.786;7.058;2023-09-12T07:19:00;10.63;;;7.45;;
67108;SDS011;54027;50.786;7.058;2023-09-12T07:21:26;15.32;;;7.10;;
67108;SDS011;54027;50.786;7.058;2023-09-12T07:23:51;10.50;;;6.68;;
67108;SDS011;54027;50.786;7.058;2023-09-12T07:26:16;12.75;;;6.85;;
67108;SDS011;54027;50.786;7.058;2023-09-12T07:28:42;10.40;;;6.60;;
67108;SDS011;54027;50.786;7.058;2023-09-12T07:31:07;9.07;;;6.82;;
67108;SDS011;54027;50.786;7.058;2023-09-12T07:33:33;9.07;;;6.32;;
67108;SDS011;54027;50.786;7.058;2023-09-12T07:35:58;11.80;;;6.63;;
67108;SDS011;54027;50.786;7.058;2023-09-12T07:38:24;11.68;;;6.82;;
67108;SDS011;54027;50.786;7.058;2023-09-12T07:40:50;10.07;;;6.57;;
67108;SDS011;54027;50.786;7.058;2023-09-12T07:43:16;12.48;;;6.88;;
67108;SDS011;54027;50.786;7.058;2023-09-12T07:45:41;12.80;;;7.40;;
67108;SDS011;54027;50.786;7.058;2023-09-12T07:48:07;13.07;;;7.57;;
67108;SDS011;54027;50.786;7.058;2023-09-12T07:50:34;12.63;;;7.38;;
67108;SDS011;54027;50.786;7.058;2023-09-12T07:52:59;13.80;;;7.20;;
67108;SDS011;54027;50.786;7.058;2023-09-12T07:55:25;13.77;;;7.70;;
67108;SDS011;54027;50.786;7.058;2023-09-12T07:57:50;11.88;;;7.18;;
67108;SDS011;54027;50.786;7.058;2023-09-12T08:00:16;9.88;;;7.22;;
67108;SDS011;54027;50.786;7.058;2023-09-12T08:02:42;9.25;;;6.75;;
67108;SDS011;54027;50.786;7.058;2023-09-12T08:05:07;9.93;;;6.63;;
67108;SDS011;54027;50.786;7.058;2023-09-12T08:07:34;14.18;;;7.15;;
67108;SDS011;54027;50.786;7.058;2023-09-12T08:09:59;10.73;;;6.97;;
67108;SDS011;54027;50.786;7.058;2023-09-12T08:12:26;11.02;;;7.32;;
67108;SDS011;54027;50.786;7.058;2023-09-12T08:14:53;11.48;;;7.70;;
67108;SDS011;54027;50.786;7.058;2023-09-12T08:17:19;11.02;;;7.43;;
67108;SDS011;54027;50.786;7.058;2023-09-12T08:19:45;13.93;;;7.97;;
67108;SDS011;54027;50.786;7.058;2023-09-12T08:22:10;11.20;;;6.80;;
67108;SDS011;54027;50.786;7.058;2023-09-12T08:24:36;11.07;;;7.60;;
67108;SDS011;54027;50.786;7.058;2023-09-12T08:27:03;12.93;;;7.53;;
67108;SDS011;54027;50.786;7.058;2023-09-12T08:29:29;10.98;;;6.95;;
67108;SDS011;54027;50.786;7.058;2023-09-12T08:31:54;11.77;;;7.18;;
67108;SDS011;54027;50.786;7.058;2023-09-12T08:34:20;8.88;;;6.10;;
67108;SDS011;54027;50.786;7.058;2023-09-12T08:36:46;14.30;;;8.30;;
67108;SDS011;54027;50.786;7.058;2023-09-12T08:39:14;14.18;;;8.35;;
67108;SDS011;54027;50.786;7.058;2023-09-12T08:41:41;12.10;;;7.28;;
67108;SDS011;54027;50.786;7.058;2023-09-12T08:44:11;12.98;;;8.90;;
67108;SDS011;54027;50.786;7.058;2023-09-12T08:46:39;14.00;;;8.40;;
67108;SDS011;54027;50.786;7.058;2023-09-12T08:49:06;15.38;;;8.80;;
67108;SDS011;54027;50.786;7.058;2023-09-12T08:51:32;18.80;;;8.98;;
67108;SDS011;54027;50.786;7.058;2023-09-12T08:53:58;10.35;;;7.25;;
67108;SDS011;54027;50.786;7.058;2023-09-12T08:56:24;12.35;;;7.80;;
67108;SDS011;54027;50.786;7.058;2023-09-12T08:58:50;12.57;;;7.07;;
67108;SDS011;54027;50.786;7.058;2023-09-12T09:01:16;11.57;;;7.22;;
67108;SDS011;54027;50.786;7.058;2023-09-12T09:03:44;14.18;;;8.18;;
67108;SDS011;54027;50.786;7.058;2023-09-12T09:06:10;14.40;;;8.88;;
67108;SDS011;54027;50.786;7.058;2023-09-12T09:08:35;13.10;;;8.90;;
67108;SDS011;54027;50.786;7.058;2023-09-12T09:11:02;13.52;;;8.25;;
67108;SDS011;54027;50.786;7.058;2023-09-12T09:13:28;10.70;;;8.07;;
67108;SDS011;54027;50.786;7.058;2023-09-12T09:16:09;12.35;;;8.13;;
67108;SDS011;54027;50.786;7.058;2023-09-12T09:18:57;14.60;;;7.68;;
67108;SDS011;54027;50.786;7.058;2023-09-12T09:21:25;11.25;;;8.13;;
67108;SDS011;54027;50.786;7.058;2023-09-12T09:23:58;10.00;;;7.60;;
67108;SDS011;54027;50.786;7.058;2023-09-12T09:26:25;11.50;;;9.25;;
67108;SDS011;54027;50.786;7.058;2023-09-12T09:29:08;12.65;;;8.57;;
67108;SDS011;54027;50.786;7.058;2023-09-12T09:31:38;13.77;;;9.15;;
67108;SDS011;54027;50.786;7.058;2023-09-12T09:34:09;15.40;;;10.48;;
67108;SDS011;54027;50.786;7.058;2023-09-12T09:36:36;12.43;;;10.00;;
67108;SDS011;54027;50.786;7.058;2023-09-12T09:39:01;16.02;;;10.13;;
67108;SDS011;54027;50.786;7.058;2023-09-12T09:41:29;13.98;;;9.98;;
67108;SDS011;54027;50.786;7.058;2023-09-12T09:43:55;16.63;;;10.90;;
67108;SDS011;54027;50.786;7.058;2023-09-12T09:46:21;15.50;;;11.23;;
67108;SDS011;54027;50.786;7.058;2023-09-12T09:48:50;11.55;;;8.15;;
67108;SDS011;54027;50.786;7.058;2023-09-12T09:51:16;14.77;;;10.98;;
67108;SDS011;54027;50.786;7.058;2023-09-12T09:53:42;14.50;;;10.63;;
67108;SDS011;54027;50.786;7.058;2023-09-12T09:56:12;15.35;;;9.80;;
67108;SDS011;54027;50.786;7.058;2023-09-12T09:58:47;19.73;;;11.63;;
67108;SDS011;54027;50.786;7.058;2023-09-12T10:01:17;15.18;;;10.88;;
67108;SDS011;54027;50.786;7.058;2023-09-12T10:03:47;11.05;;;9.82;;
67108;SDS011;54027;50.786;7.058;2023-09-12T10:06:14;15.73;;;11.23;;
67108;SDS011;54027;50.786;7.058;2023-09-12T10:08:44;15.52;;;11.10;;
67108;SDS011;54027;50.786;7.058;2023-09-12T10:11:13;16.42;;;10.20;;
67108;SDS011;54027;50.786;7.058;2023-09-12T10:13:42;15.18;;;10.65;;
67108;SDS011;54027;50.786;7.058;2023-09-12T10:16:14;15.20;;;10.27;;
67108;SDS011;54027;50.786;7.058;2023-09-12T10:18:42;15.30;;;9.32;;
67108;SDS011;54027;50.786;7.058;2023-09-12T10:21:15;15.68;;;9.27;;
67108;SDS011;54027;50.786;7.058;2023-09-12T10:23:47;13.45;;;9.15;;
67108;SDS011;54027;50.786;7.058;2023-09-12T10:26:15;13.30;;;8.75;;
67108;SDS011;54027;50.786;7.058;2023-09-12T10:28:42;10.85;;;9.75;;
67108;SDS011;54027;50.786;7.058;2023-09-12T10:31:08;13.60;;;10.00;;
67108;SDS011;54027;50.786;7.058;2023-09-12T10:33:36;13.73;;;9.10;;
67108;SDS011;54027;50.786;7.058;2023-09-12T10:36:06;13.23;;;10.57;;
67108;SDS011;54027;50.786;7.058;2023-09-12T10:38:33;15.18;;;9.82;;
67108;SDS011;54027;50.786;7.058;2023-09-12T10:41:05;10.30;;;8.57;;
67108;SDS011;54027;50.786;7.058;2023-09-12T10:43:33;17.65;;;10.63;;
67108;SDS011;54027;50.786;7.058;2023-09-12T10:46:01;14.90;;;9.30;;
67108;SDS011;54027;50.786;7.058;2023-09-12T10:48:28;13.70;;;9.68;;
67108;SDS011;54027;50.786;7.058;2023-09-12T10:50:56;13.50;;;8.57;;
67108;SDS011;54027;50.786;7.058;2023-09-12T10:53:23;19.20;;;9.68;;
67108;SDS011;54027;50.786;7.058;2023-09-12T10:59:08;11.70;;;9.27;;
67108;SDS011;54027;50.786;7.058;2023-09-12T11:01:35;11.90;;;9.75;;
67108;SDS011;54027;50.786;7.058;2023-09-12T11:06:48;16.15;;;9.35;;
67108;SDS011;54027;50.786;7.058;2023-09-12T11:11:43;14.13;;;9.32;;
67108;SDS011;54027;50.786;7.058;2023-09-12T11:14:11;15.13;;;8.95;;
67108;SDS011;54027;50.786;7.058;2023-09-12T11:16:37;11.75;;;9.38;;
67108;SDS011;54027;50.786;7.058;2023-09-12T11:19:13;11.00;;;8.68;;
67108;SDS011;54027;50.786;7.058;2023-09-12T11:21:47;14.88;;;9.82;;
67108;SDS011;54027;50.786;7.058;2023-09-12T11:24:15;14.55;;;9.60;;
67108;SDS011;54027;50.786;7.058;2023-09-12T11:26:54;11.30;;;8.30;;
67108;SDS011;54027;50.786;7.058;2023-09-12T11:29:27;13.02;;;8.50;;
67108;SDS011;54027;50.786;7.058;2023-09-12T11:31:56;17.58;;;8.75;;
67108;SDS011;54027;50.786;7.058;2023-09-12T11:34:26;12.55;;;8.00;;
67108;SDS011;54027;50.786;7.058;2023-09-12T11:36:55;12.05;;;8.02;;
67108;SDS011;54027;50.786;7.058;2023-09-12T11:39:23;8.55;;;7.32;;
67108;SDS011;54027;50.786;7.058;2023-09-12T11:41:52;10.85;;;8.32;;
67108;SDS011;54027;50.786;7.058;2023-09-12T11:44:19;12.43;;;7.95;;
67108;SDS011;54027;50.786;7.058;2023-09-12T11:46:46;11.23;;;8.02;;
67108;SDS011;54027;50.786;7.058;2023-09-12T11:49:14;10.95;;;7.57;;
67108;SDS011;54027;50.786;7.058;2023-09-12T11:52:14;13.43;;;7.75;;
67108;SDS011;54027;50.786;7.058;2023-09-12T11:54:34;9.38;;;7.25;;
67108;SDS011;54027;50.786;7.058;2023-09-12T11:57:00;9.63;;;7.20;;
67108;SDS011;54027;50.786;7.058;2023-09-12T11:59:27;7.95;;;7.03;;
67108;SDS011;54027;50.786;7.058;2023-09-12T12:01:52;11.93;;;7.55;;
67108;SDS011;54027;50.786;7.058;2023-09-12T12:04:22;10.13;;;7.15;;
67108;SDS011;54027;50.786;7.058;2023-09-12T12:06:50;8.05;;;6.22;;
67108;SDS011;54027;50.786;7.058;2023-09-12T12:09:17;13.05;;;7.10;;
67108;SDS011;54027;50.786;7.058;2023-09-12T12:11:44;12.10;;;6.53;;
67108;SDS011;54027;50.786;7.058;2023-09-12T12:14:14;8.40;;;6.20;;
67108;SDS011;54027;50.786;7.058;2023-09-12T12:16:42;6.43;;;5.70;;
67108;SDS011;54027;50.786;7.058;2023-09-12T12:19:09;8.95;;;6.20;;
67108;SDS011;54027;50.786;7.058;2023-09-12T12:21:36;10.18;;;6.20;;
67108;SDS011;54027;50.786;7.058;2023-09-12T12:24:03;7.78;;;5.57;;
67108;SDS011;54027;50.786;7.058;2023-09-12T12:26:32;10.13;;;5.70;;
67108;SDS011;54027;50.786;7.058;2023-09-12T12:28:59;10.93;;;5.97;;
67108;SDS011;54027;50.786;7.058;2023-09-12T12:31:25;6.70;;;4.75;;
67108;SDS011;54027;50.786;7.058;2023-09-12T12:33:54;7.65;;;6.00;;
67108;SDS011;54027;50.786;7.058;2023-09-12T12:36:21;9.82;;;5.18;;
67108;SDS011;54027;50.786;7.058;2023-09-12T12:38:47;7.65;;;5.78;;
67108;SDS011;54027;50.786;7.058;2023-09-12T12:41:14;9.25;;;6.68;;
67108;SDS011;54027;50.786;7.058;2023-09-12T12:43:41;9.00;;;6.43;;
67108;SDS011;54027;50.786;7.058;2023-09-12T12:46:10;6.40;;;5.35;;
67108;SDS011;54027;50.786;7.058;2023-09-12T12:48:37;11.80;;;6.05;;
67108;SDS011;54027;50.786;7.058;2023-09-12T12:53:49;6.80;;;5.10;;
67108;SDS011;54027;50.786;7.058;2023-09-12T12:56:20;7.22;;;4.90;;
67108;SDS011;54027;50.786;7.058;2023-09-12T12:58:51;6.97;;;4.93;;
67108;SDS011;54027;50.786;7.058;2023-09-12T13:01:17;6.68;;;4.97;;
67108;SDS011;54027;50.786;7.058;2023-09-12T13:03:43;6.25;;;4.60;;
67108;SDS011;54027;50.786;7.058;2023-09-12T13:06:10;7.97;;;4.63;;
67108;SDS011;54027;50.786;7.058;2023-09-12T13:08:42;6.22;;;4.47;;
67108;SDS011;54027;50.786;7.058;2023-09-12T13:11:09;6.15;;;4.85;;
67108;SDS011;54027;50.786;7.058;2023-09-12T13:13:36;6.88;;;4.63;;
67108;SDS011;54027;50.786;7.058;2023-09-12T13:16:03;8.85;;;5.50;;
67108;SDS011;54027;50.786;7.058;2023-09-12T13:18:30;8.90;;;5.22;;
67108;SDS011;54027;50.786;7.058;2023-09-12T13:20:56;7.13;;;5.60;;
67108;SDS011;54027;50.786;7.058;2023-09-12T13:23:22;10.60;;;5.80;;
67108;SDS011;54027;50.786;7.058;2023-09-12T13:25:49;9.70;;;6.07;;
67108;SDS011;54027;50.786;7.058;2023-09-12T13:28:14;8.27;;;5.25;;
67108;SDS011;54027;50.786;7.058;2023-09-12T13:30:40;7.80;;;5.82;;
67108;SDS011;54027;50.786;7.058;2023-09-12T13:33:05;9.70;;;5.20;;
67108;SDS011;54027;50.786;7.058;2023-09-12T13:35:30;5.93;;;4.85;;
67108;SDS011;54027;50.786;7.058;2023-09-12T13:37:57;11.52;;;5.82;;
67108;SDS011;54027;50.786;7.058;2023-09-12T13:40:22;8.00;;;5.55;;
67108;SDS011;54027;50.786;7.058;2023-09-12T13:42:47;8.15;;;5.45;;
67108;SDS011;54027;50.786;7.058;2023-09-12T13:45:13;6.28;;;4.97;;
67108;SDS011;54027;50.786;7.058;2023-09-12T13:47:38;7.13;;;5.53;;
67108;SDS011;54027;50.786;7.058;2023-09-12T13:50:04;7.28;;;5.47;;
67108;SDS011;54027;50.786;7.058;2023-09-12T13:52:30;7.78;;;5.75;;
67108;SDS011;54027;50.786;7.058;2023-09-12T13:54:55;5.60;;;4.78;;
67108;SDS011;54027;50.786;7.058;2023-09-12T13:57:21;10.20;;;5.70;;
67108;SDS011;54027;50.786;7.058;2023-09-12T13:59:46;8.48;;;5.57;;
67108;SDS011;54027;50.786;7.058;2023-09-12T14:02:11;7.03;;;5.07;;
67108;SDS011;54027;50.786;7.058;2023-09-12T14:04:37;8.95;;;5.60;;
67108;SDS011;54027;50.786;7.058;2023-09-12T14:07:02;7.35;;;5.75;;
67108;SDS011;54027;50.786;7.058;2023-09-12T14:09:28;5.93;;;4.88;;
67108;SDS011;54027;50.786;7.058;2023-09-12T14:11:53;8.25;;;5.35;;
67108;SDS011;54027;50.786;7.058;2023-09-12T14:14:19;7.10;;;5.22;;
67108;SDS011;54027;50.786;7.058;2023-09-12T14:16:44;7.95;;;5.32;;
67108;SDS011;54027;50.786;7.058;2023-09-12T14:19:10;9.18;;;5.88;;
67108;SDS011;54027;50.786;7.058;2023-09-12T14:21:36;8.38;;;5.75;;
67108;SDS011;54027;50.786;7.058;2023-09-12T14:24:02;8.38;;;5.32;;
67108;SDS011;54027;50.786;7.058;2023-09-12T14:26:28;8.55;;;6.15;;
67108;SDS011;54027;50.786;7.058;2023-09-12T14:28:53;9.63;;;6.05;;
67108;SDS011;54027;50.786;7.058;2023-09-12T14:31:20;8.88;;;5.70;;
67108;SDS011;54027;50.786;7.058;2023-09-12T14:33:47;8.38;;;6.13;;
67108;SDS011;54027;50.786;7.058;2023-09-12T14:36:13;8.77;;;5.55;;
67108;SDS011;54027;50.786;7.058;2023-09-12T14:38:38;12.15;;;5.78;;
67108;SDS011;54027;50.786;7.058;2023-09-12T14:41:03;8.60;;;5.30;;
67108;SDS011;54027;50.786;7.058;2023-09-12T14:43:29;7.88;;;5.45;;
67108;SDS011;54027;50.786;7.058;2023-09-12T14:45:54;8.93;;;5.90;;
67108;SDS011;54027;50.786;7.058;2023-09-12T14:48:20;11.52;;;5.78;;
67108;SDS011;54027;50.786;7.058;2023-09-12T14:50:45;8.98;;;6.03;;
67108;SDS011;54027;50.786;7.058;2023-09-12T14:53:14;7.03;;;5.63;;
67108;SDS011;54027;50.786;7.058;2023-09-12T14:55:41;9.77;;;5.40;;
67108;SDS011;54027;50.786;7.058;2023-09-12T14:58:06;6.18;;;4.55;;
67108;SDS011;54027;50.786;7.058;2023-09-12T15:00:32;8.50;;;5.20;;
67108;SDS011;54027;50.786;7.058;2023-09-12T15:02:58;7.50;;;5.28;;